Terminal Aerodrome Forecast
Issued by NWS

Home | Current Version | Previous Version | Text Only | Print | Product List | Glossary On
Versions: 1 2 3 4 5 6 7 8 9 10 11 12 13 14 15
000
FTUS44 KEPZ 202300
TAFLRU
TAF
KLRU 202332Z 2100/2124 25010KT P6SM FEW070 FEW120
     FM210800 33008KT P6SM FEW120
     FM211500 05007KT P6SM SCT080=

USA.gov is the U.S. government's official web portal to all federal, state and local government web resources and services.